sensor_id;sensor_type;location;lat;lon;timestamp;temperature;humidity
21834;DHT22;11079;51.092;3.458;2024-01-25T00:00:07;9.30;99.90
21834;DHT22;11079;51.092;3.458;2024-01-25T00:45:17;9.00;99.90
21834;DHT22;11079;51.092;3.458;2024-01-25T01:11:23;8.70;99.90
21834;DHT22;11079;51.092;3.458;2024-01-25T01:17:12;8.60;99.90
21834;DHT22;11079;51.092;3.458;2024-01-25T01:29:35;8.10;99.90
21834;DHT22;11079;51.092;3.458;2024-01-25T01:40:23;8.10;99.90
21834;DHT22;11079;51.092;3.458;2024-01-25T01:46:09;8.00;99.90
21834;DHT22;11079;51.092;3.458;2024-01-25T01:57:36;8.10;99.90
21834;DHT22;11079;51.092;3.458;2024-01-25T02:10:29;8.10;99.90
21834;DHT22;11079;51.092;3.458;2024-01-25T02:12:58;7.90;99.90
21834;DHT22;11079;51.092;3.458;2024-01-25T02:19:09;8.00;99.90
21834;DHT22;11079;51.092;3.458;2024-01-25T02:24:48;7.80;99.90
21834;DHT22;11079;51.092;3.458;2024-01-25T02:27:33;7.50;99.90
21834;DHT22;11079;51.092;3.458;2024-01-25T02:33:52;7.40;99.90
21834;DHT22;11079;51.092;3.458;2024-01-25T02:41:00;7.60;99.90
21834;DHT22;11079;51.092;3.458;2024-01-25T02:43:28;7.80;99.90
21834;DHT22;11079;51.092;3.458;2024-01-25T02:45:54;7.80;99.90
21834;DHT22;11079;51.092;3.458;2024-01-25T02:48:47;7.70;99.90
21834;DHT22;11079;51.092;3.458;2024-01-25T02:51:58;7.60;99.90
21834;DHT22;11079;51.092;3.458;2024-01-25T02:57:49;7.60;99.90
21834;DHT22;11079;51.092;3.458;2024-01-25T03:08:52;7.40;99.90
21834;DHT22;11079;51.092;3.458;2024-01-25T03:19:13;7.30;99.90
21834;DHT22;11079;51.092;3.458;2024-01-25T03:25:10;7.40;99.90
21834;DHT22;11079;51.092;3.458;2024-01-25T03:27:56;7.40;99.90
21834;DHT22;11079;51.092;3.458;2024-01-25T03:30:28;7.40;99.90
21834;DHT22;11079;51.092;3.458;2024-01-25T03:33:11;7.30;99.90
21834;DHT22;11079;51.092;3.458;2024-01-25T03:35:55;7.20;99.90
21834;DHT22;11079;51.092;3.458;2024-01-25T03:38:45;7.20;99.90
21834;DHT22;11079;51.092;3.458;2024-01-25T03:41:16;7.40;99.90
21834;DHT22;11079;51.092;3.458;2024-01-25T03:46:47;7.20;99.90
21834;DHT22;11079;51.092;3.458;2024-01-25T03:58:59;7.00;99.90
21834;DHT22;11079;51.092;3.458;2024-01-25T04:10:03;7.10;99.90
21834;DHT22;11079;51.092;3.458;2024-01-25T04:15:46;6.80;99.90
21834;DHT22;11079;51.092;3.458;2024-01-25T04:18:19;6.70;99.90
21834;DHT22;11079;51.092;3.458;2024-01-25T04:21:27;6.80;99.90
21834;DHT22;11079;51.092;3.458;2024-01-25T04:24:51;7.00;99.90
21834;DHT22;11079;51.092;3.458;2024-01-25T04:27:39;7.10;99.90
21834;DHT22;11079;51.092;3.458;2024-01-25T04:36:12;6.90;99.90
21834;DHT22;11079;51.092;3.458;2024-01-25T04:45:16;6.80;99.90
21834;DHT22;11079;51.092;3.458;2024-01-25T04:47:48;6.60;99.90
21834;DHT22;11079;51.092;3.458;2024-01-25T04:50:34;6.50;99.90
21834;DHT22;11079;51.092;3.458;2024-01-25T04:53:31;6.60;99.90
21834;DHT22;11079;51.092;3.458;2024-01-25T04:56:39;6.70;99.90
21834;DHT22;11079;51.092;3.458;2024-01-25T05:06:36;6.50;99.90
21834;DHT22;11079;51.092;3.458;2024-01-25T05:09:39;6.30;99.90
21834;DHT22;11079;51.092;3.458;2024-01-25T05:12:11;6.40;99.90
21834;DHT22;11079;51.092;3.458;2024-01-25T05:15:14;6.40;99.90
21834;DHT22;11079;51.092;3.458;2024-01-25T05:18:24;6.40;99.90
21834;DHT22;11079;51.092;3.458;2024-01-25T05:20:49;6.40;99.90
21834;DHT22;11079;51.092;3.458;2024-01-25T05:27:12;6.30;99.90
21834;DHT22;11079;51.092;3.458;2024-01-25T05:29:41;6.50;99.90
21834;DHT22;11079;51.092;3.458;2024-01-25T05:32:26;6.60;99.90
21834;DHT22;11079;51.092;3.458;2024-01-25T05:40:46;6.50;99.90
21834;DHT22;11079;51.092;3.458;2024-01-25T05:46:19;6.60;99.90
21834;DHT22;11079;51.092;3.458;2024-01-25T05:48:44;6.50;99.90
21834;DHT22;11079;51.092;3.458;2024-01-25T05:51:38;6.40;99.90
21834;DHT22;11079;51.092;3.458;2024-01-25T05:54:05;6.40;99.90
21834;DHT22;11079;51.092;3.458;2024-01-25T05:56:31;6.40;99.90
21834;DHT22;11079;51.092;3.458;2024-01-25T05:58:57;6.50;99.90
21834;DHT22;11079;51.092;3.458;2024-01-25T06:01:23;6.40;99.90
21834;DHT22;11079;51.092;3.458;2024-01-25T06:03:49;6.40;99.90
21834;DHT22;11079;51.092;3.458;2024-01-25T06:06:15;6.50;99.90
21834;DHT22;11079;51.092;3.458;2024-01-25T06:08:40;6.70;99.90
21834;DHT22;11079;51.092;3.458;2024-01-25T06:11:06;6.80;99.90
21834;DHT22;11079;51.092;3.458;2024-01-25T06:13:32;6.70;99.90
21834;DHT22;11079;51.092;3.458;2024-01-25T06:15:58;6.80;99.90
21834;DHT22;11079;51.092;3.458;2024-01-25T06:18:54;6.80;99.90
21834;DHT22;11079;51.092;3.458;2024-01-25T06:21:54;6.70;99.90
21834;DHT22;11079;51.092;3.458;2024-01-25T06:24:21;6.80;99.90
21834;DHT22;11079;51.092;3.458;2024-01-25T06:26:48;6.80;99.90
21834;DHT22;11079;51.092;3.458;2024-01-25T06:29:21;6.80;99.90
21834;DHT22;11079;51.092;3.458;2024-01-25T06:31:47;6.90;99.90
21834;DHT22;11079;51.092;3.458;2024-01-25T06:34:34;6.90;99.90
21834;DHT22;11079;51.092;3.458;2024-01-25T06:37:23;6.90;99.90
21834;DHT22;11079;51.092;3.458;2024-01-25T06:39:52;7.00;99.90
21834;DHT22;11079;51.092;3.458;2024-01-25T06:42:24;7.00;99.90
21834;DHT22;11079;51.092;3.458;2024-01-25T06:47:28;6.90;99.90
21834;DHT22;11079;51.092;3.458;2024-01-25T06:49:57;6.70;99.90
21834;DHT22;11079;51.092;3.458;2024-01-25T07:07:01;6.90;99.90
21834;DHT22;11079;51.092;3.458;2024-01-25T07:10:14;6.80;99.90
21834;DHT22;11079;51.092;3.458;2024-01-25T07:12:56;6.50;99.90
21834;DHT22;11079;51.092;3.458;2024-01-25T07:15:43;6.50;99.90
21834;DHT22;11079;51.092;3.458;2024-01-25T07:18:10;6.60;99.90
21834;DHT22;11079;51.092;3.458;2024-01-25T07:20:36;6.50;99.90
21834;DHT22;11079;51.092;3.458;2024-01-25T07:23:02;6.70;99.90
21834;DHT22;11079;51.092;3.458;2024-01-25T07:25:27;6.50;99.90
21834;DHT22;11079;51.092;3.458;2024-01-25T07:27:53;6.60;99.90
21834;DHT22;11079;51.092;3.458;2024-01-25T07:30:19;6.60;99.90
21834;DHT22;11079;51.092;3.458;2024-01-25T07:32:45;6.70;99.90
21834;DHT22;11079;51.092;3.458;2024-01-25T07:35:12;6.70;99.90
21834;DHT22;11079;51.092;3.458;2024-01-25T07:37:38;6.80;99.90
21834;DHT22;11079;51.092;3.458;2024-01-25T07:40:06;6.70;99.90
21834;DHT22;11079;51.092;3.458;2024-01-25T07:42:33;6.60;99.90
21834;DHT22;11079;51.092;3.458;2024-01-25T07:44:59;6.60;99.90
21834;DHT22;11079;51.092;3.458;2024-01-25T07:47:24;6.60;99.90
21834;DHT22;11079;51.092;3.458;2024-01-25T07:49:50;6.80;99.90
21834;DHT22;11079;51.092;3.458;2024-01-25T07:52:15;6.80;99.90
21834;DHT22;11079;51.092;3.458;2024-01-25T07:54:41;6.90;99.90
21834;DHT22;11079;51.092;3.458;2024-01-25T07:57:07;6.90;99.90
21834;DHT22;11079;51.092;3.458;2024-01-25T07:59:32;7.00;99.90
21834;DHT22;11079;51.092;3.458;2024-01-25T08:01:58;7.00;99.90
21834;DHT22;11079;51.092;3.458;2024-01-25T08:04:24;7.10;99.90
21834;DHT22;11079;51.092;3.458;2024-01-25T08:06:51;6.90;99.90
21834;DHT22;11079;51.092;3.458;2024-01-25T08:09:18;6.90;99.90
21834;DHT22;11079;51.092;3.458;2024-01-25T08:11:44;6.90;99.90
21834;DHT22;11079;51.092;3.458;2024-01-25T08:14:10;6.80;99.90
21834;DHT22;11079;51.092;3.458;2024-01-25T08:16:38;6.90;99.90
21834;DHT22;11079;51.092;3.458;2024-01-25T08:19:03;6.80;99.90
21834;DHT22;11079;51.092;3.458;2024-01-25T08:21:30;7.10;99.90
21834;DHT22;11079;51.092;3.458;2024-01-25T08:23:55;7.10;99.90
21834;DHT22;11079;51.092;3.458;2024-01-25T08:26:21;7.20;99.90
21834;DHT22;11079;51.092;3.458;2024-01-25T08:28:47;7.30;99.90
21834;DHT22;11079;51.092;3.458;2024-01-25T08:31:13;7.30;99.90
21834;DHT22;11079;51.092;3.458;2024-01-25T08:33:39;7.30;99.90
21834;DHT22;11079;51.092;3.458;2024-01-25T08:36:10;7.30;99.90
21834;DHT22;11079;51.092;3.458;2024-01-25T08:38:37;7.50;99.90
21834;DHT22;11079;51.092;3.458;2024-01-25T08:41:03;7.40;99.90
21834;DHT22;11079;51.092;3.458;2024-01-25T08:43:29;7.40;99.90
21834;DHT22;11079;51.092;3.458;2024-01-25T08:45:55;7.40;99.90
21834;DHT22;11079;51.092;3.458;2024-01-25T08:48:21;7.50;99.90
21834;DHT22;11079;51.092;3.458;2024-01-25T08:50:46;7.70;99.90
21834;DHT22;11079;51.092;3.458;2024-01-25T08:53:14;7.70;99.90
21834;DHT22;11079;51.092;3.458;2024-01-25T08:55:40;7.90;99.90
21834;DHT22;11079;51.092;3.458;2024-01-25T08:58:05;8.00;99.90
21834;DHT22;11079;51.092;3.458;2024-01-25T09:00:31;8.00;99.90
21834;DHT22;11079;51.092;3.458;2024-01-25T09:02:57;8.10;99.90
21834;DHT22;11079;51.092;3.458;2024-01-25T09:05:22;7.80;99.90
21834;DHT22;11079;51.092;3.458;2024-01-25T09:07:48;7.80;99.90
21834;DHT22;11079;51.092;3.458;2024-01-25T09:10:16;7.80;99.90
21834;DHT22;11079;51.092;3.458;2024-01-25T09:12:41;8.00;99.90
21834;DHT22;11079;51.092;3.458;2024-01-25T09:15:07;8.00;99.90
21834;DHT22;11079;51.092;3.458;2024-01-25T09:17:33;8.10;99.90
21834;DHT22;11079;51.092;3.458;2024-01-25T09:19:59;8.20;99.90
21834;DHT22;11079;51.092;3.458;2024-01-25T09:22:25;8.40;99.90
21834;DHT22;11079;51.092;3.458;2024-01-25T09:24:51;8.50;99.90
21834;DHT22;11079;51.092;3.458;2024-01-25T09:27:17;8.70;99.90
21834;DHT22;11079;51.092;3.458;2024-01-25T09:29:43;8.80;99.90
21834;DHT22;11079;51.092;3.458;2024-01-25T09:32:09;8.80;99.90
21834;DHT22;11079;51.092;3.458;2024-01-25T09:34:38;8.90;99.90
21834;DHT22;11079;51.092;3.458;2024-01-25T09:37:07;8.70;99.90
21834;DHT22;11079;51.092;3.458;2024-01-25T09:39:33;8.60;99.90
21834;DHT22;11079;51.092;3.458;2024-01-25T09:42:01;8.90;99.90
21834;DHT22;11079;51.092;3.458;2024-01-25T09:44:28;9.00;99.90
21834;DHT22;11079;51.092;3.458;2024-01-25T09:46:54;9.00;99.90
21834;DHT22;11079;51.092;3.458;2024-01-25T09:49:19;8.80;99.90
21834;DHT22;11079;51.092;3.458;2024-01-25T09:51:46;8.80;99.90
21834;DHT22;11079;51.092;3.458;2024-01-25T09:54:14;8.80;99.90
21834;DHT22;11079;51.092;3.458;2024-01-25T09:56:41;8.60;99.90
21834;DHT22;11079;51.092;3.458;2024-01-25T09:59:07;8.60;99.90
21834;DHT22;11079;51.092;3.458;2024-01-25T10:01:33;8.50;99.90
21834;DHT22;11079;51.092;3.458;2024-01-25T10:03:59;8.60;99.90
21834;DHT22;11079;51.092;3.458;2024-01-25T10:06:25;8.60;99.90
21834;DHT22;11079;51.092;3.458;2024-01-25T10:08:52;8.60;99.90
21834;DHT22;11079;51.092;3.458;2024-01-25T10:11:18;8.60;99.90
21834;DHT22;11079;51.092;3.458;2024-01-25T10:13:46;8.60;99.90
21834;DHT22;11079;51.092;3.458;2024-01-25T10:16:18;8.80;99.90
21834;DHT22;11079;51.092;3.458;2024-01-25T10:18:46;8.90;99.90
21834;DHT22;11079;51.092;3.458;2024-01-25T10:21:13;9.00;99.90
21834;DHT22;11079;51.092;3.458;2024-01-25T10:23:40;9.00;99.90
21834;DHT22;11079;51.092;3.458;2024-01-25T10:26:08;9.20;99.90
21834;DHT22;11079;51.092;3.458;2024-01-25T10:28:33;9.20;99.90
21834;DHT22;11079;51.092;3.458;2024-01-25T10:31:00;9.20;99.90
21834;DHT22;11079;51.092;3.458;2024-01-25T10:33:38;9.20;99.90
21834;DHT22;11079;51.092;3.458;2024-01-25T10:36:05;9.20;99.90
21834;DHT22;11079;51.092;3.458;2024-01-25T10:38:35;9.20;99.90
21834;DHT22;11079;51.092;3.458;2024-01-25T10:41:03;9.20;99.90
21834;DHT22;11079;51.092;3.458;2024-01-25T10:43:29;9.10;99.90
21834;DHT22;11079;51.092;3.458;2024-01-25T10:45:59;9.30;99.90
21834;DHT22;11079;51.092;3.458;2024-01-25T10:48:25;9.40;99.90
21834;DHT22;11079;51.092;3.458;2024-01-25T10:50:53;9.30;99.90
21834;DHT22;11079;51.092;3.458;2024-01-25T10:53:19;9.30;99.90
21834;DHT22;11079;51.092;3.458;2024-01-25T10:55:45;9.50;99.90
21834;DHT22;11079;51.092;3.458;2024-01-25T10:58:16;9.70;99.90
21834;DHT22;11079;51.092;3.458;2024-01-25T11:01:16;9.70;99.90
21834;DHT22;11079;51.092;3.458;2024-01-25T11:03:46;9.80;99.90
21834;DHT22;11079;51.092;3.458;2024-01-25T11:06:15;9.90;99.90
21834;DHT22;11079;51.092;3.458;2024-01-25T11:09:07;9.80;99.90
21834;DHT22;11079;51.092;3.458;2024-01-25T11:11:55;9.80;99.90
21834;DHT22;11079;51.092;3.458;2024-01-25T11:15:06;9.70;99.90
21834;DHT22;11079;51.092;3.458;2024-01-25T11:17:58;9.60;99.90
21834;DHT22;11079;51.092;3.458;2024-01-25T11:20:31;9.70;99.90
21834;DHT22;11079;51.092;3.458;2024-01-25T11:23:04;9.60;99.90
21834;DHT22;11079;51.092;3.458;2024-01-25T11:25:31;9.70;99.90
21834;DHT22;11079;51.092;3.458;2024-01-25T11:27:58;9.60;99.90
21834;DHT22;11079;51.092;3.458;2024-01-25T11:30:29;9.70;99.90
21834;DHT22;11079;51.092;3.458;2024-01-25T11:32:55;9.70;99.90
21834;DHT22;11079;51.092;3.458;2024-01-25T11:35:33;9.90;99.90
21834;DHT22;11079;51.092;3.458;2024-01-25T11:37:59;9.80;99.90
21834;DHT22;11079;51.092;3.458;2024-01-25T11:40:25;10.00;99.90
21834;DHT22;11079;51.092;3.458;2024-01-25T11:43:02;10.10;99.90
21834;DHT22;11079;51.092;3.458;2024-01-25T11:45:36;10.10;99.90
21834;DHT22;11079;51.092;3.458;2024-01-25T11:48:11;10.10;99.90
21834;DHT22;11079;51.092;3.458;2024-01-25T11:50:37;10.00;99.90
21834;DHT22;11079;51.092;3.458;2024-01-25T11:53:05;10.00;99.90
21834;DHT22;11079;51.092;3.458;2024-01-25T11:55:30;10.00;99.90
21834;DHT22;11079;51.092;3.458;2024-01-25T11:57:56;10.00;99.90
21834;DHT22;11079;51.092;3.458;2024-01-25T12:00:22;10.00;99.90
21834;DHT22;11079;51.092;3.458;2024-01-25T12:02:56;10.10;99.90
21834;DHT22;11079;51.092;3.458;2024-01-25T12:05:22;10.10;99.90
21834;DHT22;11079;51.092;3.458;2024-01-25T12:07:48;10.10;99.90
21834;DHT22;11079;51.092;3.458;2024-01-25T12:10:17;10.10;99.90
21834;DHT22;11079;51.092;3.458;2024-01-25T12:12:44;10.20;99.90
21834;DHT22;11079;51.092;3.458;2024-01-25T12:15:09;10.20;99.90
21834;DHT22;11079;51.092;3.458;2024-01-25T12:17:35;10.20;99.90
21834;DHT22;11079;51.092;3.458;2024-01-25T12:20:12;10.20;99.90
21834;DHT22;11079;51.092;3.458;2024-01-25T12:22:38;10.30;99.90
21834;DHT22;11079;51.092;3.458;2024-01-25T12:25:12;10.40;99.90
21834;DHT22;11079;51.092;3.458;2024-01-25T12:27:40;10.40;99.90
21834;DHT22;11079;51.092;3.458;2024-01-25T12:30:15;10.50;99.90
21834;DHT22;11079;51.092;3.458;2024-01-25T12:32:42;10.60;99.90
21834;DHT22;11079;51.092;3.458;2024-01-25T12:35:08;10.60;99.90
21834;DHT22;11079;51.092;3.458;2024-01-25T12:37:35;10.60;99.90
21834;DHT22;11079;51.092;3.458;2024-01-25T12:40:01;10.60;99.90
21834;DHT22;11079;51.092;3.458;2024-01-25T12:42:29;10.70;99.90
21834;DHT22;11079;51.092;3.458;2024-01-25T12:44:57;10.70;99.90
21834;DHT22;11079;51.092;3.458;2024-01-25T12:47:22;10.60;99.90
21834;DHT22;11079;51.092;3.458;2024-01-25T12:49:48;10.90;99.90
21834;DHT22;11079;51.092;3.458;2024-01-25T12:52:15;10.90;99.90
21834;DHT22;11079;51.092;3.458;2024-01-25T12:54:41;11.00;99.90
21834;DHT22;11079;51.092;3.458;2024-01-25T12:57:07;11.00;99.90
21834;DHT22;11079;51.092;3.458;2024-01-25T12:59:34;10.80;99.90
21834;DHT22;11079;51.092;3.458;2024-01-25T13:02:00;10.80;99.90
21834;DHT22;11079;51.092;3.458;2024-01-25T13:04:26;10.90;99.90
21834;DHT22;11079;51.092;3.458;2024-01-25T13:06:54;10.90;99.90
21834;DHT22;11079;51.092;3.458;2024-01-25T13:09:23;10.80;99.90
21834;DHT22;11079;51.092;3.458;2024-01-25T13:11:49;10.90;99.90
21834;DHT22;11079;51.092;3.458;2024-01-25T13:14:15;10.90;99.90
21834;DHT22;11079;51.092;3.458;2024-01-25T13:16:42;10.90;99.90
21834;DHT22;11079;51.092;3.458;2024-01-25T13:19:08;10.80;99.90
21834;DHT22;11079;51.092;3.458;2024-01-25T13:21:34;10.80;99.90
21834;DHT22;11079;51.092;3.458;2024-01-25T13:24:00;10.90;99.90
21834;DHT22;11079;51.092;3.458;2024-01-25T13:26:26;10.90;99.90
21834;DHT22;11079;51.092;3.458;2024-01-25T13:28:52;10.90;99.90
21834;DHT22;11079;51.092;3.458;2024-01-25T13:31:18;10.80;99.90
21834;DHT22;11079;51.092;3.458;2024-01-25T13:33:44;10.90;99.90
21834;DHT22;11079;51.092;3.458;2024-01-25T13:36:14;10.90;99.90
21834;DHT22;11079;51.092;3.458;2024-01-25T13:38:41;11.10;99.90
21834;DHT22;11079;51.092;3.458;2024-01-25T13:41:08;11.20;99.90
21834;DHT22;11079;51.092;3.458;2024-01-25T13:43:34;11.30;99.90
21834;DHT22;11079;51.092;3.458;2024-01-25T13:46:00;11.40;99.90
21834;DHT22;11079;51.092;3.458;2024-01-25T13:48:26;11.30;99.90
21834;DHT22;11079;51.092;3.458;2024-01-25T13:50:52;11.30;99.90
21834;DHT22;11079;51.092;3.458;2024-01-25T13:53:19;11.40;99.90
21834;DHT22;11079;51.092;3.458;2024-01-25T13:55:45;11.40;99.90
21834;DHT22;11079;51.092;3.458;2024-01-25T13:58:10;11.40;99.90
21834;DHT22;11079;51.092;3.458;2024-01-25T14:00:36;11.40;99.90
21834;DHT22;11079;51.092;3.458;2024-01-25T14:03:04;11.60;99.90
21834;DHT22;11079;51.092;3.458;2024-01-25T14:05:29;11.60;99.90
21834;DHT22;11079;51.092;3.458;2024-01-25T14:07:55;11.80;99.90
21834;DHT22;11079;51.092;3.458;2024-01-25T14:10:21;11.90;99.90
21834;DHT22;11079;51.092;3.458;2024-01-25T14:12:46;11.90;99.90
21834;DHT22;11079;51.092;3.458;2024-01-25T14:15:13;12.10;99.90
21834;DHT22;11079;51.092;3.458;2024-01-25T14:17:43;12.10;99.90
21834;DHT22;11079;51.092;3.458;2024-01-25T14:20:09;12.00;99.90
21834;DHT22;11079;51.092;3.458;2024-01-25T14:22:35;11.90;99.90
21834;DHT22;11079;51.092;3.458;2024-01-25T14:25:01;11.90;99.90
21834;DHT22;11079;51.092;3.458;2024-01-25T14:27:27;12.00;99.90
21834;DHT22;11079;51.092;3.458;2024-01-25T14:29:53;12.00;99.90
21834;DHT22;11079;51.092;3.458;2024-01-25T14:32:18;12.00;99.90
21834;DHT22;11079;51.092;3.458;2024-01-25T14:34:47;12.10;99.90
21834;DHT22;11079;51.092;3.458;2024-01-25T14:37:13;12.20;99.90
21834;DHT22;11079;51.092;3.458;2024-01-25T14:39:38;12.10;99.90
21834;DHT22;11079;51.092;3.458;2024-01-25T14:42:09;12.20;99.90
21834;DHT22;11079;51.092;3.458;2024-01-25T14:44:37;12.30;99.90
21834;DHT22;11079;51.092;3.458;2024-01-25T14:47:04;12.30;99.90
21834;DHT22;11079;51.092;3.458;2024-01-25T14:49:29;12.30;99.90
21834;DHT22;11079;51.092;3.458;2024-01-25T14:51:55;12.30;99.90
21834;DHT22;11079;51.092;3.458;2024-01-25T14:54:21;12.30;99.90
21834;DHT22;11079;51.092;3.458;2024-01-25T14:56:46;12.30;99.90
21834;DHT22;11079;51.092;3.458;2024-01-25T14:59:16;12.40;99.90
21834;DHT22;11079;51.092;3.458;2024-01-25T15:01:41;12.40;99.90
21834;DHT22;11079;51.092;3.458;2024-01-25T15:04:08;12.30;99.90
21834;DHT22;11079;51.092;3.458;2024-01-25T15:06:43;12.10;99.90
21834;DHT22;11079;51.092;3.458;2024-01-25T15:09:47;12.10;99.90
21834;DHT22;11079;51.092;3.458;2024-01-25T15:14:48;12.20;99.90
21834;DHT22;11079;51.092;3.458;2024-01-25T15:17:14;12.30;99.90
21834;DHT22;11079;51.092;3.458;2024-01-25T15:19:40;12.40;99.90
21834;DHT22;11079;51.092;3.458;2024-01-25T15:22:06;12.30;99.90
21834;DHT22;11079;51.092;3.458;2024-01-25T15:24:32;12.00;99.90
21834;DHT22;11079;51.092;3.458;2024-01-25T15:26:58;12.00;99.90
21834;DHT22;11079;51.092;3.458;2024-01-25T15:29:24;12.10;99.90
21834;DHT22;11079;51.092;3.458;2024-01-25T15:31:50;12.10;99.90
21834;DHT22;11079;51.092;3.458;2024-01-25T15:34:16;12.10;99.90
21834;DHT22;11079;51.092;3.458;2024-01-25T15:36:42;12.00;99.90
21834;DHT22;11079;51.092;3.458;2024-01-25T15:39:10;12.00;99.90
21834;DHT22;11079;51.092;3.458;2024-01-25T15:41:37;12.10;99.90
21834;DHT22;11079;51.092;3.458;2024-01-25T15:44:04;12.00;99.90
21834;DHT22;11079;51.092;3.458;2024-01-25T15:46:30;11.90;99.90
21834;DHT22;11079;51.092;3.458;2024-01-25T15:48:56;11.90;99.90
21834;DHT22;11079;51.092;3.458;2024-01-25T15:51:23;11.90;99.90
21834;DHT22;11079;51.092;3.458;2024-01-25T15:53:49;11.90;99.90
21834;DHT22;11079;51.092;3.458;2024-01-25T15:56:15;11.80;99.90
21834;DHT22;11079;51.092;3.458;2024-01-25T15:58:41;11.70;99.90
21834;DHT22;11079;51.092;3.458;2024-01-25T16:01:06;11.70;99.90
21834;DHT22;11079;51.092;3.458;2024-01-25T16:03:33;11.70;99.90
21834;DHT22;11079;51.092;3.458;2024-01-25T16:06:02;11.70;99.90
21834;DHT22;11079;51.092;3.458;2024-01-25T16:08:29;11.70;99.90
21834;DHT22;11079;51.092;3.458;2024-01-25T16:10:55;11.70;99.90
21834;DHT22;11079;51.092;3.458;2024-01-25T16:13:21;11.70;99.90
21834;DHT22;11079;51.092;3.458;2024-01-25T16:15:46;11.60;99.90
21834;DHT22;11079;51.092;3.458;2024-01-25T16:18:12;11.70;99.90
21834;DHT22;11079;51.092;3.458;2024-01-25T16:20:38;11.70;99.90
21834;DHT22;11079;51.092;3.458;2024-01-25T16:23:04;11.70;99.90
21834;DHT22;11079;51.092;3.458;2024-01-25T16:25:29;11.60;99.90
21834;DHT22;11079;51.092;3.458;2024-01-25T16:27:57;11.60;99.90
21834;DHT22;11079;51.092;3.458;2024-01-25T16:30:23;11.60;99.90
21834;DHT22;11079;51.092;3.458;2024-01-25T16:32:49;11.60;99.90
21834;DHT22;11079;51.092;3.458;2024-01-25T16:35:16;11.50;99.90
21834;DHT22;11079;51.092;3.458;2024-01-25T16:38:08;11.50;99.90
21834;DHT22;11079;51.092;3.458;2024-01-25T16:40:54;11.60;99.90
21834;DHT22;11079;51.092;3.458;2024-01-25T16:43:22;11.70;99.90
21834;DHT22;11079;51.092;3.458;2024-01-25T16:53:50;11.90;99.90
21834;DHT22;11079;51.092;3.458;2024-01-25T16:56:43;11.90;99.90
21834;DHT22;11079;51.092;3.458;2024-01-25T16:59:17;11.90;99.90
21834;DHT22;11079;51.092;3.458;2024-01-25T17:01:43;11.80;99.90
21834;DHT22;11079;51.092;3.458;2024-01-25T17:04:12;11.90;99.90
21834;DHT22;11079;51.092;3.458;2024-01-25T17:07:13;11.90;99.90
21834;DHT22;11079;51.092;3.458;2024-01-25T17:09:39;11.80;99.90
21834;DHT22;11079;51.092;3.458;2024-01-25T17:12:06;11.80;99.90
21834;DHT22;11079;51.092;3.458;2024-01-25T17:14:31;11.90;99.90
21834;DHT22;11079;51.092;3.458;2024-01-25T17:16:57;12.00;99.90
21834;DHT22;11079;51.092;3.458;2024-01-25T17:19:24;12.00;99.90
21834;DHT22;11079;51.092;3.458;2024-01-25T17:21:50;11.80;99.90
21834;DHT22;11079;51.092;3.458;2024-01-25T17:24:21;11.80;99.90
21834;DHT22;11079;51.092;3.458;2024-01-25T17:26:47;11.80;99.90
21834;DHT22;11079;51.092;3.458;2024-01-25T17:29:14;11.80;99.90
21834;DHT22;11079;51.092;3.458;2024-01-25T17:31:39;11.80;99.90
21834;DHT22;11079;51.092;3.458;2024-01-25T17:34:05;11.80;99.90
21834;DHT22;11079;51.092;3.458;2024-01-25T17:36:31;11.80;99.90
21834;DHT22;11079;51.092;3.458;2024-01-25T17:38:57;11.80;99.90
21834;DHT22;11079;51.092;3.458;2024-01-25T17:41:22;11.70;99.90
21834;DHT22;11079;51.092;3.458;2024-01-25T17:43:48;11.60;99.90
21834;DHT22;11079;51.092;3.458;2024-01-25T17:46:13;11.60;99.90
21834;DHT22;11079;51.092;3.458;2024-01-25T17:48:40;11.60;99.90
21834;DHT22;11079;51.092;3.458;2024-01-25T17:51:06;11.50;99.90
21834;DHT22;11079;51.092;3.458;2024-01-25T17:53:32;11.60;99.90
21834;DHT22;11079;51.092;3.458;2024-01-25T17:56:00;11.50;99.90
21834;DHT22;11079;51.092;3.458;2024-01-25T17:58:26;11.50;99.90
21834;DHT22;11079;51.092;3.458;2024-01-25T18:00:53;11.50;99.90
21834;DHT22;11079;51.092;3.458;2024-01-25T18:03:19;11.50;99.90
21834;DHT22;11079;51.092;3.458;2024-01-25T18:05:45;11.60;99.90
21834;DHT22;11079;51.092;3.458;2024-01-25T18:08:10;11.60;99.90
21834;DHT22;11079;51.092;3.458;2024-01-25T18:10:36;11.50;99.90
21834;DHT22;11079;51.092;3.458;2024-01-25T18:13:02;11.50;99.90
21834;DHT22;11079;51.092;3.458;2024-01-25T18:15:28;11.60;99.90
21834;DHT22;11079;51.092;3.458;2024-01-25T18:17:54;11.60;99.90
21834;DHT22;11079;51.092;3.458;2024-01-25T18:20:20;11.60;99.90
21834;DHT22;11079;51.092;3.458;2024-01-25T18:22:45;11.50;99.90
21834;DHT22;11079;51.092;3.458;2024-01-25T18:25:14;11.50;99.90
21834;DHT22;11079;51.092;3.458;2024-01-25T18:27:41;11.60;99.90
21834;DHT22;11079;51.092;3.458;2024-01-25T18:30:13;11.50;99.90
21834;DHT22;11079;51.092;3.458;2024-01-25T18:32:39;11.50;99.90
21834;DHT22;11079;51.092;3.458;2024-01-25T18:35:06;11.50;99.90
21834;DHT22;11079;51.092;3.458;2024-01-25T18:37:32;11.40;99.90
21834;DHT22;11079;51.092;3.458;2024-01-25T18:39:58;11.40;99.90
21834;DHT22;11079;51.092;3.458;2024-01-25T18:42:26;11.40;99.90
21834;DHT22;11079;51.092;3.458;2024-01-25T18:45:12;11.30;99.90
21834;DHT22;11079;51.092;3.458;2024-01-25T18:47:37;11.40;99.90
21834;DHT22;11079;51.092;3.458;2024-01-25T18:50:05;11.30;99.90
21834;DHT22;11079;51.092;3.458;2024-01-25T18:52:33;11.40;99.90
21834;DHT22;11079;51.092;3.458;2024-01-25T18:54:59;11.20;99.90
21834;DHT22;11079;51.092;3.458;2024-01-25T18:57:25;11.30;99.90
21834;DHT22;11079;51.092;3.458;2024-01-25T18:59:51;11.40;99.90
21834;DHT22;11079;51.092;3.458;2024-01-25T19:02:17;11.40;99.90
21834;DHT22;11079;51.092;3.458;2024-01-25T19:04:43;11.40;99.90
21834;DHT22;11079;51.092;3.458;2024-01-25T19:07:10;11.40;99.90
21834;DHT22;11079;51.092;3.458;2024-01-25T19:09:35;11.60;99.90
21834;DHT22;11079;51.092;3.458;2024-01-25T19:14:39;11.60;99.90
21834;DHT22;11079;51.092;3.458;2024-01-25T19:17:05;11.60;99.90
21834;DHT22;11079;51.092;3.458;2024-01-25T19:19:34;11.70;99.90
21834;DHT22;11079;51.092;3.458;2024-01-25T19:22:00;11.80;99.90
21834;DHT22;11079;51.092;3.458;2024-01-25T19:24:25;11.80;99.90
21834;DHT22;11079;51.092;3.458;2024-01-25T19:26:52;11.90;99.90
21834;DHT22;11079;51.092;3.458;2024-01-25T19:29:17;12.00;99.90
21834;DHT22;11079;51.092;3.458;2024-01-25T19:37:09;11.80;99.90
21834;DHT22;11079;51.092;3.458;2024-01-25T21:49:35;11.90;99.90
21834;DHT22;11079;51.092;3.458;2024-01-25T21:52:21;12.00;99.90
21834;DHT22;11079;51.092;3.458;2024-01-25T21:54:47;11.90;99.90
21834;DHT22;11079;51.092;3.458;2024-01-25T21:57:13;11.90;99.90
21834;DHT22;11079;51.092;3.458;2024-01-25T21:59:38;11.90;99.90
21834;DHT22;11079;51.092;3.458;2024-01-25T22:02:04;11.90;99.90
21834;DHT22;11079;51.092;3.458;2024-01-25T22:04:30;11.90;99.90